Time;durP1;ratioP1;P1;durP2;ratioP2;P2;SDS_P1;SDS_P2;PMS_P1;PMS_P2;Temp;Humidity;BMP_temperature;BMP_pressure;BME280_temperature;BME280_humidity;BME280_pressure;Samples;Min_cycle;Max_cycle;Signal;HPM_P1;HPM_P2
2024/01/08 00:01:17;;;;;;;5.93;3.40;;;19.50;54.60;;;;;;5106961;28;20513;-55
2024/01/08 00:03:43;;;;;;;8.52;3.65;;;19.50;54.60;;;;;;5107099;28;20020;-50
2024/01/08 00:06:09;;;;;;;9.60;3.88;;;19.50;54.50;;;;;;5108778;27;20046;-52
2024/01/08 00:08:34;;;;;;;8.68;4.20;;;19.50;54.10;;;;;;5108623;28;20030;-57
2024/01/08 00:11:00;;;;;;;9.38;3.78;;;19.50;54.30;;;;;;5107879;28;20058;-52
2024/01/08 00:13:26;;;;;;;10.13;3.78;;;19.50;54.40;;;;;;5107666;28;20053;-55
2024/01/08 00:15:51;;;;;;;17.33;4.10;;;19.50;54.60;;;;;;5108716;27;20042;-48
2024/01/08 00:18:18;;;;;;;7.25;3.30;;;19.40;54.60;;;;;;5105278;28;20532;-55
2024/01/08 00:20:44;;;;;;;8.55;3.63;;;19.40;54.90;;;;;;5107894;27;20439;-55
2024/01/08 00:23:10;;;;;;;8.57;3.33;;;19.40;54.90;;;;;;5104651;27;20016;-57
2024/01/08 00:25:36;;;;;;;14.05;3.42;;;19.40;54.80;;;;;;5105927;27;20072;-51
2024/01/08 00:28:04;;;;;;;9.80;3.97;;;19.40;55.00;;;;;;5111246;27;20027;-57
2024/01/08 00:30:29;;;;;;;9.05;3.67;;;19.30;54.90;;;;;;5101151;27;20031;-49
2024/01/08 00:32:55;;;;;;;7.57;3.53;;;19.30;54.80;;;;;;5112523;27;20082;-52
2024/01/08 00:35:21;;;;;;;11.82;4.15;;;19.30;55.10;;;;;;5107662;27;20138;-55
2024/01/08 00:37:47;;;;;;;5.50;3.38;;;19.30;54.80;;;;;;5108428;27;20787;-57
2024/01/08 00:40:13;;;;;;;7.20;3.50;;;19.30;54.90;;;;;;5084198;28;20020;-55
2024/01/08 00:42:39;;;;;;;7.70;3.63;;;19.30;54.90;;;;;;5108915;27;20515;-57
2024/01/08 00:45:05;;;;;;;8.68;3.72;;;19.30;54.90;;;;;;5102784;28;20105;-53
2024/01/08 00:47:32;;;;;;;9.43;3.80;;;19.30;55.00;;;;;;5102524;28;20071;-57
2024/01/08 00:49:58;;;;;;;7.97;4.00;;;19.30;55.10;;;;;;5104021;28;20028;-56
2024/01/08 00:52:24;;;;;;;8.30;3.53;;;19.30;54.50;;;;;;5106179;27;20032;-55
2024/01/08 00:54:49;;;;;;;8.15;3.58;;;19.30;54.80;;;;;;5105864;28;20022;-50
2024/01/08 00:57:15;;;;;;;6.22;3.28;;;19.30;55.20;;;;;;5100969;27;20111;-54
2024/01/08 00:59:41;;;;;;;7.22;4.00;;;19.30;54.40;;;;;;5108029;28;20038;-52
2024/01/08 01:02:07;;;;;;;8.45;3.15;;;19.30;55.20;;;;;;5107868;28;20334;-56
2024/01/08 01:04:32;;;;;;;8.27;3.80;;;19.30;55.20;;;;;;5099036;28;20031;-56
2024/01/08 01:06:58;;;;;;;15.30;3.95;;;19.30;55.20;;;;;;5106394;28;20028;-53
2024/01/08 01:09:24;;;;;;;8.02;3.45;;;19.30;55.30;;;;;;5100554;28;20038;-57
2024/01/08 01:11:50;;;;;;;11.32;3.70;;;19.30;55.20;;;;;;5118329;22;20011;-54
2024/01/08 01:14:16;;;;;;;6.85;3.22;;;19.30;55.20;;;;;;5010840;28;20105;-54
2024/01/08 01:16:42;;;;;;;7.75;3.78;;;19.30;55.10;;;;;;5022190;28;20152;-53
2024/01/08 01:19:08;;;;;;;7.45;3.67;;;19.30;55.20;;;;;;5009630;28;20034;-53
2024/01/08 01:21:34;;;;;;;6.13;3.35;;;19.30;55.20;;;;;;5007670;28;20045;-56
2024/01/08 01:23:59;;;;;;;8.63;3.95;;;19.30;55.20;;;;;;5108368;28;20019;-55
2024/01/08 01:26:25;;;;;;;7.45;3.72;;;19.30;55.20;;;;;;5098867;28;20053;-53
2024/01/08 01:28:52;;;;;;;6.82;3.72;;;19.30;55.10;;;;;;5107227;28;20287;-58
2024/01/08 01:31:18;;;;;;;7.15;3.40;;;19.30;55.00;;;;;;5089378;28;20031;-56
2024/01/08 01:33:44;;;;;;;7.07;3.60;;;19.30;55.10;;;;;;5110450;28;20418;-55
2024/01/08 01:36:10;;;;;;;6.72;3.50;;;19.30;55.00;;;;;;5107873;28;20028;-55
2024/01/08 01:38:36;;;;;;;6.38;3.45;;;19.30;55.00;;;;;;5106998;28;20034;-57
2024/01/08 01:41:01;;;;;;;5.55;3.40;;;19.30;55.00;;;;;;5109859;28;20032;-56
2024/01/08 01:43:31;;;;;;;8.73;3.92;;;19.30;55.10;;;;;;5112125;28;20016;-50
2024/01/08 01:46:07;;;;;;;17.30;3.83;;;19.40;55.00;;;;;;5111432;28;20020;-51
2024/01/08 01:48:34;;;;;;;8.55;3.55;;;19.40;55.00;;;;;;5119318;27;20039;-56
2024/01/08 01:51:02;;;;;;;6.75;3.35;;;19.40;54.90;;;;;;5111711;27;20051;-52
2024/01/08 01:53:28;;;;;;;8.10;3.70;;;19.40;54.90;;;;;;5111053;27;20031;-53
2024/01/08 01:55:54;;;;;;;7.75;3.33;;;19.40;54.90;;;;;;5111480;28;20066;-50
2024/01/08 01:58:21;;;;;;;6.35;3.35;;;19.40;55.00;;;;;;5111133;27;20036;-55
2024/01/08 02:00:47;;;;;;;6.75;3.88;;;19.40;54.90;;;;;;5116347;27;20102;-52
2024/01/08 02:03:13;;;;;;;6.22;3.25;;;19.40;54.60;;;;;;5119059;27;20031;-56
2024/01/08 02:05:39;;;;;;;9.90;3.38;;;19.40;54.70;;;;;;5118746;27;20028;-55
2024/01/08 02:08:06;;;;;;;5.85;3.53;;;19.40;54.90;;;;;;5111787;27;20107;-58
2024/01/08 02:10:33;;;;;;;6.63;3.35;;;19.40;54.90;;;;;;5110493;28;20039;-57
2024/01/08 02:13:00;;;;;;;8.35;3.50;;;19.30;54.80;;;;;;5111214;28;20040;-53
2024/01/08 02:15:25;;;;;;;8.15;3.30;;;19.40;55.00;;;;;;5108872;28;20484;-53
2024/01/08 02:17:51;;;;;;;7.95;3.47;;;19.30;54.90;;;;;;5108596;27;20168;-56
2024/01/08 02:20:17;;;;;;;7.47;3.30;;;19.40;54.90;;;;;;5112397;27;20016;-51
2024/01/08 02:22:43;;;;;;;5.20;2.92;;;19.30;54.80;;;;;;5112142;27;20553;-54
2024/01/08 02:25:10;;;;;;;7.18;3.28;;;19.30;54.80;;;;;;5110590;28;20023;-55
2024/01/08 02:27:36;;;;;;;5.40;3.17;;;19.30;54.80;;;;;;5106312;28;20051;-53
2024/01/08 02:30:01;;;;;;;6.18;3.42;;;19.30;55.40;;;;;;5107316;27;20478;-53
2024/01/08 02:32:29;;;;;;;7.05;3.42;;;19.30;54.80;;;;;;5111728;27;20398;-56
2024/01/08 02:34:55;;;;;;;5.63;3.33;;;19.30;54.80;;;;;;5111543;27;20031;-56
2024/01/08 02:37:21;;;;;;;6.10;3.47;;;19.30;54.70;;;;;;5110811;27;20442;-55
2024/01/08 02:39:46;;;;;;;5.32;3.28;;;19.30;54.70;;;;;;5111303;27;20534;-50
2024/01/08 02:42:13;;;;;;;6.30;3.63;;;19.30;54.70;;;;;;5109874;28;20015;-54
2024/01/08 02:44:40;;;;;;;4.70;3.25;;;19.30;54.80;;;;;;5111463;28;20028;-49
2024/01/08 02:47:06;;;;;;;7.32;3.72;;;19.30;54.90;;;;;;5112400;27;20023;-57
2024/01/08 02:49:32;;;;;;;9.48;3.60;;;19.30;54.90;;;;;;5109533;28;20031;-53
2024/01/08 02:51:57;;;;;;;7.70;3.50;;;19.30;54.90;;;;;;5108982;28;20387;-53
2024/01/08 02:54:23;;;;;;;7.03;3.17;;;19.30;54.90;;;;;;5109778;27;20061;-53
2024/01/08 02:56:50;;;;;;;6.07;3.45;;;19.30;54.90;;;;;;5116585;27;20024;-55
2024/01/08 02:59:16;;;;;;;5.68;3.22;;;19.30;55.00;;;;;;5111527;27;20462;-56
2024/01/08 03:01:42;;;;;;;7.05;3.30;;;19.30;54.90;;;;;;5115767;27;20026;-51
2024/01/08 03:04:08;;;;;;;5.10;3.28;;;19.30;54.90;;;;;;5118641;27;21365;-56
2024/01/08 03:06:34;;;;;;;5.05;3.10;;;19.30;54.90;;;;;;5118174;27;20508;-55
2024/01/08 03:08:59;;;;;;;6.18;3.15;;;19.30;54.80;;;;;;5113195;27;20031;-58
2024/01/08 03:11:25;;;;;;;5.97;3.50;;;19.30;54.80;;;;;;5093948;28;20517;-53
2024/01/08 03:13:51;;;;;;;6.15;3.30;;;19.30;54.70;;;;;;5111844;27;20089;-57
2024/01/08 03:16:19;;;;;;;9.43;3.25;;;19.30;54.70;;;;;;5092107;28;20028;-53
2024/01/08 03:18:46;;;;;;;5.35;3.20;;;19.30;54.60;;;;;;5111487;27;20032;-58
2024/01/08 03:21:12;;;;;;;5.30;3.03;;;19.30;54.60;;;;;;5106823;27;20027;-55
2024/01/08 03:23:38;;;;;;;5.40;2.90;;;19.40;54.70;;;;;;5113897;27;20023;-56
2024/01/08 03:26:05;;;;;;;6.43;3.35;;;19.40;54.60;;;;;;5102325;28;20165;-56
2024/01/08 03:28:31;;;;;;;5.45;3.40;;;19.30;54.40;;;;;;5108996;27;20028;-52
2024/01/08 03:30:56;;;;;;;7.30;3.55;;;19.40;54.50;;;;;;5103868;28;20126;-56
2024/01/08 03:33:23;;;;;;;6.90;3.38;;;19.30;54.30;;;;;;5090055;28;20065;-53
2024/01/08 03:35:49;;;;;;;7.47;3.40;;;19.40;54.40;;;;;;5104176;27;20015;-52
2024/01/08 03:38:15;;;;;;;6.28;3.33;;;19.30;54.30;;;;;;5114499;27;20488;-56
2024/01/08 03:40:41;;;;;;;6.25;3.30;;;19.40;54.40;;;;;;5105189;28;20032;-54
2024/01/08 03:43:07;;;;;;;5.07;3.13;;;19.40;54.40;;;;;;5104668;27;20027;-58
2024/01/08 03:45:32;;;;;;;7.28;3.20;;;19.30;54.40;;;;;;5098198;28;20369;-56
2024/01/08 03:47:58;;;;;;;8.45;3.40;;;19.30;54.40;;;;;;5102898;27;20032;-53
2024/01/08 03:50:24;;;;;;;6.32;3.28;;;19.30;54.60;;;;;;5107569;27;20019;-49
2024/01/08 03:52:50;;;;;;;5.78;3.25;;;19.40;54.70;;;;;;5108898;28;20095;-59
2024/01/08 03:55:15;;;;;;;4.90;3.17;;;19.30;54.60;;;;;;5111632;27;20126;-56
2024/01/08 03:57:41;;;;;;;6.35;3.50;;;19.30;54.60;;;;;;5092109;28;20398;-54
2024/01/08 04:00:07;;;;;;;7.97;3.17;;;19.30;54.70;;;;;;5110171;27;20490;-54
2024/01/08 04:02:42;;;;;;;6.13;2.97;;;19.30;54.70;;;;;;5103620;27;20141;-55
2024/01/08 04:05:11;;;;;;;4.50;3.20;;;19.30;54.70;;;;;;5109815;27;20031;-55
2024/01/08 04:07:37;;;;;;;6.25;3.17;;;19.30;54.70;;;;;;5105921;27;20019;-58
2024/01/08 04:10:04;;;;;;;4.13;3.03;;;19.30;54.80;;;;;;5110468;27;20375;-55
2024/01/08 04:12:30;;;;;;;9.35;3.45;;;19.30;54.80;;;;;;5114076;27;20106;-52
2024/01/08 04:14:56;;;;;;;7.75;3.17;;;19.30;54.80;;;;;;5113949;27;20580;-54
2024/01/08 04:17:22;;;;;;;4.35;3.20;;;19.30;54.80;;;;;;5113491;27;20031;-55
2024/01/08 04:19:47;;;;;;;6.68;3.13;;;19.30;54.80;;;;;;5108047;27;20028;-57
2024/01/08 04:22:13;;;;;;;4.80;2.90;;;19.30;54.80;;;;;;5111729;27;20024;-51
2024/01/08 04:24:39;;;;;;;9.38;3.45;;;19.30;54.80;;;;;;5108131;28;20077;-50
2024/01/08 04:27:05;;;;;;;7.80;3.40;;;19.30;54.90;;;;;;5112340;27;20433;-54
2024/01/08 04:29:31;;;;;;;5.82;3.10;;;19.30;54.90;;;;;;5113687;27;20027;-55
2024/01/08 04:31:57;;;;;;;7.10;3.00;;;19.30;54.90;;;;;;5116566;27;20083;-57
2024/01/08 04:34:23;;;;;;;7.30;3.05;;;19.30;54.80;;;;;;5107782;28;20023;-55
2024/01/08 04:36:48;;;;;;;5.15;3.25;;;19.30;54.80;;;;;;5105572;28;20020;-57
2024/01/08 04:39:14;;;;;;;5.45;3.35;;;19.30;55.40;;;;;;5111328;27;20020;-53
2024/01/08 04:41:40;;;;;;;5.75;3.05;;;19.30;54.70;;;;;;5099063;28;20023;-52
2024/01/08 04:44:06;;;;;;;7.25;3.53;;;19.30;54.70;;;;;;5108254;28;20023;-55
2024/01/08 04:46:32;;;;;;;5.63;3.05;;;19.30;54.60;;;;;;5108576;28;20085;-54
2024/01/08 04:48:57;;;;;;;5.20;2.65;;;19.30;54.60;;;;;;5073222;28;20023;-54
2024/01/08 04:51:24;;;;;;;4.85;3.03;;;19.30;54.60;;;;;;5108668;28;20563;-51
2024/01/08 04:53:50;;;;;;;6.28;3.45;;;19.30;54.50;;;;;;5111197;27;20068;-50
2024/01/08 04:56:20;;;;;;;4.70;3.05;;;19.30;54.50;;;;;;5109705;27;20032;-51
2024/01/08 04:58:46;;;;;;;4.85;3.25;;;19.30;54.40;;;;;;5108183;27;20028;-55
2024/01/08 05:01:12;;;;;;;4.93;3.28;;;19.30;54.40;;;;;;5109097;27;20382;-53
2024/01/08 05:03:37;;;;;;;5.88;3.30;;;19.30;54.40;;;;;;5112308;27;20047;-55
2024/01/08 05:06:03;;;;;;;4.82;3.53;;;19.30;54.30;;;;;;5118547;27;20554;-53
2024/01/08 05:08:29;;;;;;;7.53;2.97;;;19.30;54.30;;;;;;5093108;28;20067;-51
2024/01/08 05:10:55;;;;;;;6.70;3.83;;;19.30;54.20;;;;;;5101304;28;20066;-55
2024/01/08 05:13:20;;;;;;;5.57;3.22;;;19.30;54.20;;;;;;5112170;27;20034;-48
2024/01/08 05:15:46;;;;;;;5.00;3.30;;;19.30;54.20;;;;;;5099215;28;20027;-54
2024/01/08 05:18:12;;;;;;;6.30;3.47;;;19.30;54.20;;;;;;5107443;28;20036;-49
2024/01/08 05:20:38;;;;;;;8.07;3.70;;;19.30;54.20;;;;;;5100203;28;20019;-52
2024/01/08 05:23:04;;;;;;;7.10;3.50;;;19.30;54.30;;;;;;5098924;28;20034;-53
2024/01/08 05:25:33;;;;;;;7.65;3.50;;;19.30;54.20;;;;;;5113708;28;20027;-51
2024/01/08 05:27:59;;;;;;;6.93;3.28;;;19.30;54.20;;;;;;5116011;28;20022;-51
2024/01/08 05:30:24;;;;;;;9.63;3.28;;;19.30;54.30;;;;;;5107106;28;20019;-54
2024/01/08 05:32:50;;;;;;;6.38;3.40;;;19.30;54.20;;;;;;5100489;28;20020;-53
2024/01/08 05:35:17;;;;;;;7.03;3.40;;;19.30;54.20;;;;;;5114967;28;20485;-50
2024/01/08 05:37:43;;;;;;;5.90;3.38;;;19.30;54.20;;;;;;5110971;28;20054;-54
2024/01/08 05:40:09;;;;;;;11.18;3.40;;;19.30;54.20;;;;;;5110165;28;20506;-56
2024/01/08 05:42:35;;;;;;;7.10;3.53;;;19.30;54.40;;;;;;5102694;28;20036;-52
2024/01/08 05:45:01;;;;;;;9.07;3.40;;;19.30;54.30;;;;;;5105942;28;20012;-52
2024/01/08 05:47:27;;;;;;;7.38;3.47;;;19.30;54.40;;;;;;5107661;28;20467;-53
2024/01/08 05:49:52;;;;;;;4.97;3.47;;;19.20;54.40;;;;;;5107852;28;20026;-51
2024/01/08 05:52:18;;;;;;;7.72;3.90;;;19.20;54.30;;;;;;5105141;28;20097;-51
2024/01/08 05:54:44;;;;;;;9.02;3.72;;;19.20;54.20;;;;;;5112036;28;20055;-50
2024/01/08 05:57:10;;;;;;;6.72;3.50;;;19.20;54.20;;;;;;5109592;28;20027;-55
2024/01/08 05:59:35;;;;;;;5.85;3.20;;;19.20;54.20;;;;;;5109509;28;20490;-52
2024/01/08 06:02:01;;;;;;;7.28;3.58;;;19.20;54.20;;;;;;5119540;28;20023;-50
2024/01/08 06:04:27;;;;;;;6.85;3.35;;;19.20;54.20;;;;;;5092317;28;20256;-52
2024/01/08 06:06:54;;;;;;;8.13;3.50;;;19.20;54.10;;;;;;5117602;28;20019;-53
2024/01/08 06:09:19;;;;;;;5.82;3.63;;;19.20;54.10;;;;;;5108155;28;20020;-53
2024/01/08 06:11:45;;;;;;;6.07;3.55;;;19.20;54.10;;;;;;5100508;28;20422;-50
2024/01/08 06:14:11;;;;;;;6.68;3.80;;;19.30;54.20;;;;;;5106233;28;20418;-52
2024/01/08 06:16:37;;;;;;;7.63;4.18;;;19.20;54.10;;;;;;5106816;28;20106;-53
2024/01/08 06:19:03;;;;;;;5.15;3.20;;;19.20;54.10;;;;;;5107243;28;20059;-49
2024/01/08 06:21:28;;;;;;;7.40;4.10;;;19.20;54.10;;;;;;5106571;28;20034;-51
2024/01/08 06:23:54;;;;;;;6.55;3.58;;;19.20;54.20;;;;;;5104491;28;20091;-52
2024/01/08 06:26:21;;;;;;;8.05;3.83;;;19.20;54.20;;;;;;5100221;28;20027;-55
2024/01/08 06:28:46;;;;;;;5.55;3.70;;;19.20;54.20;;;;;;5108045;28;20023;-53
2024/01/08 06:31:13;;;;;;;7.18;3.70;;;19.20;54.30;;;;;;5110315;27;20423;-56
2024/01/08 06:33:39;;;;;;;10.43;4.00;;;19.20;54.20;;;;;;5110845;27;20023;-49
2024/01/08 06:36:05;;;;;;;7.85;4.50;;;19.20;54.20;;;;;;5094569;28;20047;-52
2024/01/08 06:38:30;;;;;;;8.82;3.85;;;19.20;54.20;;;;;;5108110;28;20084;-54
2024/01/08 06:40:56;;;;;;;8.05;4.10;;;19.20;54.70;;;;;;5110787;28;20051;-54
2024/01/08 06:43:22;;;;;;;6.55;3.85;;;19.30;54.20;;;;;;5108392;28;20066;-50
2024/01/08 06:45:49;;;;;;;8.63;4.15;;;19.20;54.10;;;;;;5108974;28;20542;-49
2024/01/08 06:48:15;;;;;;;8.32;3.95;;;19.30;54.10;;;;;;5115505;27;20024;-52
2024/01/08 06:50:40;;;;;;;8.23;3.75;;;19.30;54.10;;;;;;5092634;28;20443;-57
2024/01/08 06:53:06;;;;;;;6.38;4.05;;;19.30;54.10;;;;;;5110411;28;20019;-55
2024/01/08 06:55:32;;;;;;;9.10;3.95;;;19.30;54.10;;;;;;5110219;28;20030;-50
2024/01/08 06:57:58;;;;;;;7.82;3.90;;;19.30;54.10;;;;;;5108794;28;20402;-49
2024/01/08 07:00:26;;;;;;;10.25;4.20;;;19.30;54.20;;;;;;5109248;28;20039;-50
2024/01/08 07:02:51;;;;;;;6.75;4.35;;;19.30;54.20;;;;;;5110447;27;20020;-53
2024/01/08 07:05:18;;;;;;;7.05;4.07;;;19.30;54.20;;;;;;5092260;27;20152;-49
2024/01/08 07:07:44;;;;;;;7.53;3.92;;;19.30;54.20;;;;;;5109120;28;20027;-51
2024/01/08 07:10:10;;;;;;;7.72;4.20;;;19.30;54.20;;;;;;5110412;28;20479;-53
2024/01/08 07:12:36;;;;;;;9.68;4.20;;;19.30;54.20;;;;;;5092195;28;20236;-56
2024/01/08 07:15:04;;;;;;;8.75;4.15;;;19.30;54.10;;;;;;5094569;28;20031;-53
2024/01/08 07:17:29;;;;;;;7.50;4.22;;;19.30;54.10;;;;;;5088489;27;20019;-53
2024/01/08 07:19:55;;;;;;;8.60;4.40;;;19.30;54.10;;;;;;5105557;28;20405;-56
2024/01/08 07:22:22;;;;;;;7.55;4.35;;;19.30;54.10;;;;;;5108918;28;20023;-54
2024/01/08 07:24:48;;;;;;;8.05;4.32;;;19.30;54.20;;;;;;5109789;28;20034;-53
2024/01/08 07:27:13;;;;;;;9.20;4.35;;;19.30;54.20;;;;;;5109829;28;20024;-53
2024/01/08 07:29:39;;;;;;;9.25;4.32;;;19.30;54.10;;;;;;5109437;28;20032;-55
2024/01/08 07:32:05;;;;;;;9.35;4.35;;;19.30;54.20;;;;;;5091760;28;20026;-54
2024/01/08 07:34:31;;;;;;;7.45;4.00;;;19.30;54.30;;;;;;5108554;28;20072;-54
2024/01/08 07:36:57;;;;;;;9.30;4.50;;;19.30;54.40;;;;;;5109645;28;20067;-50
2024/01/08 07:39:23;;;;;;;8.93;4.75;;;19.30;54.40;;;;;;5108103;28;20035;-54
2024/01/08 07:41:49;;;;;;;9.20;4.47;;;19.30;54.40;;;;;;5109482;28;20027;-51
2024/01/08 07:44:15;;;;;;;9.50;4.43;;;19.30;54.30;;;;;;5098742;27;20027;-56
2024/01/08 07:46:42;;;;;;;9.35;4.45;;;19.30;54.20;;;;;;5106917;27;20032;-51
2024/01/08 07:49:10;;;;;;;9.60;4.28;;;19.30;54.20;;;;;;5109282;28;20041;-53
2024/01/08 07:51:36;;;;;;;10.45;4.60;;;19.30;54.30;;;;;;5093019;28;20027;-50
2024/01/08 07:54:02;;;;;;;8.35;4.25;;;19.30;54.00;;;;;;5109271;28;20058;-55
2024/01/08 07:56:28;;;;;;;8.15;4.60;;;19.30;54.10;;;;;;5109115;28;20051;-50
2024/01/08 07:58:53;;;;;;;7.95;4.45;;;19.30;54.10;;;;;;5108958;28;20494;-55
2024/01/08 08:01:19;;;;;;;8.25;4.22;;;19.30;54.30;;;;;;5115454;27;20054;-53
2024/01/08 08:03:45;;;;;;;10.35;4.50;;;19.30;54.70;;;;;;5109339;28;20047;-52
2024/01/08 08:06:11;;;;;;;11.48;4.78;;;19.30;55.00;;;;;;5108969;28;20628;-50
2024/01/08 08:08:37;;;;;;;25.65;5.68;;;19.30;54.60;;;;;;5104867;28;20027;-50
2024/01/08 08:11:05;;;;;;;18.15;5.03;;;19.30;56.30;;;;;;5109517;28;20031;-52
2024/01/08 08:13:31;;;;;;;10.27;4.43;;;19.30;55.80;;;;;;5107943;28;20035;-53
2024/01/08 08:15:58;;;;;;;21.65;5.60;;;19.40;55.50;;;;;;5111145;27;20024;-57
2024/01/08 08:18:24;;;;;;;22.00;6.10;;;19.30;57.50;;;;;;5108397;28;20075;-49
2024/01/08 08:20:50;;;;;;;16.98;5.38;;;19.40;57.30;;;;;;5109141;28;20938;-58
2024/01/08 08:23:16;;;;;;;14.95;5.47;;;19.40;57.90;;;;;;5108560;28;20072;-58
2024/01/08 08:25:42;;;;;;;23.48;6.22;;;19.40;58.00;;;;;;5111724;27;20107;-58
2024/01/08 08:28:07;;;;;;;17.38;6.30;;;19.40;57.30;;;;;;5108786;28;20073;-58
2024/01/08 08:30:33;;;;;;;18.17;6.13;;;19.40;60.20;;;;;;5106390;28;20027;-54
2024/01/08 08:32:59;;;;;;;21.65;5.57;;;19.40;59.70;;;;;;5108771;28;20057;-57
2024/01/08 08:35:25;;;;;;;11.57;5.05;;;19.40;57.40;;;;;;5101251;28;20028;-52
2024/01/08 08:37:51;;;;;;;13.68;5.45;;;19.40;55.50;;;;;;5102004;28;20065;-51
2024/01/08 08:40:17;;;;;;;22.83;5.35;;;19.40;55.20;;;;;;5089891;28;20028;-54
2024/01/08 08:42:43;;;;;;;15.35;5.53;;;19.40;56.10;;;;;;5108564;28;20095;-56
2024/01/08 08:45:09;;;;;;;15.20;5.15;;;19.40;55.20;;;;;;5108634;28;20054;-53
2024/01/08 08:47:35;;;;;;;15.05;5.18;;;19.40;54.70;;;;;;5090365;28;20063;-54
2024/01/08 08:50:01;;;;;;;10.50;4.85;;;19.50;54.60;;;;;;5102091;28;20037;-50
2024/01/08 08:52:27;;;;;;;20.25;5.20;;;19.50;54.50;;;;;;5106742;28;20019;-53
2024/01/08 08:54:52;;;;;;;16.85;5.90;;;19.50;54.50;;;;;;5108426;28;20467;-51
2024/01/08 08:57:19;;;;;;;12.45;5.00;;;19.50;56.90;;;;;;5088764;22;20065;-56
2024/01/08 08:59:45;;;;;;;14.90;5.53;;;19.60;57.90;;;;;;5074009;28;20111;-56
2024/01/08 09:02:11;;;;;;;14.23;5.80;;;19.60;57.50;;;;;;5008469;28;20022;-51
2024/01/08 09:04:36;;;;;;;13.95;6.00;;;19.70;58.10;;;;;;5000663;28;20041;-56
2024/01/08 09:07:02;;;;;;;17.30;7.40;;;19.70;58.80;;;;;;5021243;28;20012;-54
2024/01/08 09:09:28;;;;;;;14.30;7.50;;;19.50;50.20;;;;;;5102895;28;20473;-55
2024/01/08 09:11:54;;;;;;;12.13;7.22;;;18.40;37.50;;;;;;5104179;28;20031;-51
2024/01/08 09:14:20;;;;;;;14.18;7.55;;;17.70;35.40;;;;;;5103468;28;20533;-56
2024/01/08 09:16:46;;;;;;;11.60;6.72;;;17.00;33.00;;;;;;5065397;28;20523;-57
2024/01/08 09:19:12;;;;;;;12.23;6.20;;;17.30;37.50;;;;;;5099792;28;20028;-56
2024/01/08 09:21:37;;;;;;;14.15;6.18;;;17.70;40.40;;;;;;5104466;28;20038;-53
2024/01/08 09:24:05;;;;;;;11.65;5.82;;;18.00;41.30;;;;;;5105175;28;20069;-54
2024/01/08 09:26:31;;;;;;;11.00;6.25;;;18.40;42.70;;;;;;5105044;28;20028;-56
2024/01/08 09:28:56;;;;;;;11.45;6.22;;;18.60;42.70;;;;;;5106141;28;20016;-54
2024/01/08 09:31:22;;;;;;;12.00;6.50;;;18.80;42.00;;;;;;5106621;28;20019;-54
2024/01/08 09:33:48;;;;;;;11.77;5.93;;;18.80;43.80;;;;;;5102284;28;20033;-51
2024/01/08 09:36:14;;;;;;;16.25;6.25;;;18.90;43.80;;;;;;5101472;28;20508;-55
2024/01/08 09:38:41;;;;;;;10.82;5.80;;;19.00;42.40;;;;;;5101474;28;20045;-52
2024/01/08 09:41:11;;;;;;;18.48;5.95;;;19.10;42.00;;;;;;5102119;28;20486;-52
2024/01/08 09:43:39;;;;;;;10.82;5.40;;;19.20;41.40;;;;;;5100758;28;20024;-56
2024/01/08 09:46:06;;;;;;;12.57;6.20;;;19.30;41.90;;;;;;5082836;28;20891;-54
2024/01/08 09:48:35;;;;;;;12.20;6.18;;;19.30;42.40;;;;;;5082019;28;20109;-51
2024/01/08 09:51:02;;;;;;;15.40;6.50;;;19.40;42.90;;;;;;5099702;28;20872;-56
2024/01/08 09:53:29;;;;;;;12.68;6.22;;;19.50;43.40;;;;;;5081014;28;20402;-54
2024/01/08 09:55:56;;;;;;;13.70;6.53;;;19.50;43.70;;;;;;5099917;28;20651;-51
2024/01/08 09:58:22;;;;;;;14.48;7.30;;;19.70;44.00;;;;;;5101243;28;20024;-57
2024/01/08 10:00:47;;;;;;;14.20;6.70;;;19.70;44.10;;;;;;5102064;28;20056;-51
2024/01/08 10:03:13;;;;;;;15.75;6.70;;;19.80;44.40;;;;;;5088627;28;20387;-55
2024/01/08 10:05:39;;;;;;;17.40;6.70;;;19.80;44.70;;;;;;5105162;27;20027;-49
2024/01/08 10:08:05;;;;;;;17.88;7.38;;;19.80;45.00;;;;;;5112219;27;20041;-57
2024/01/08 10:10:32;;;;;;;21.35;7.13;;;19.80;45.40;;;;;;5110666;27;20084;-53
2024/01/08 10:12:59;;;;;;;15.57;6.93;;;19.80;45.60;;;;;;5114925;27;20363;-48
2024/01/08 10:15:27;;;;;;;15.02;7.03;;;19.80;45.70;;;;;;5114772;27;20026;-51
2024/01/08 10:17:59;;;;;;;19.20;7.03;;;19.80;45.80;;;;;;5114661;27;20015;-54
2024/01/08 10:20:25;;;;;;;21.48;7.05;;;19.80;46.00;;;;;;5113478;27;20019;-50
2024/01/08 10:23:08;;;;;;;19.83;7.72;;;19.80;46.50;;;;;;5109785;28;20116;-50
2024/01/08 10:25:38;;;;;;;20.77;8.73;;;19.90;46.70;;;;;;5109952;28;20067;-52
2024/01/08 10:28:10;;;;;;;26.10;9.23;;;19.90;47.10;;;;;;5109809;28;20015;-55
2024/01/08 10:30:36;;;;;;;23.67;8.82;;;19.90;47.50;;;;;;5112123;27;20024;-54
2024/01/08 10:33:03;;;;;;;22.83;7.72;;;19.90;47.30;;;;;;5110559;28;20505;-50
2024/01/08 10:35:29;;;;;;;16.02;7.28;;;19.90;47.20;;;;;;5110801;28;20495;-51
2024/01/08 10:37:58;;;;;;;16.77;6.72;;;19.80;47.10;;;;;;5110656;28;20027;-49
2024/01/08 10:40:26;;;;;;;15.32;6.25;;;19.90;47.20;;;;;;5109558;28;20217;-55
2024/01/08 10:42:52;;;;;;;16.55;6.72;;;19.80;47.30;;;;;;5109695;28;20494;-53
2024/01/08 10:45:18;;;;;;;26.77;7.13;;;19.80;47.40;;;;;;5109229;28;20034;-51
2024/01/08 10:48:04;;;;;;;19.67;7.22;;;19.70;47.40;;;;;;5109311;28;20032;-50
2024/01/08 10:50:32;;;;;;;17.83;7.50;;;19.70;48.00;;;;;;5109055;28;20088;-48
2024/01/08 10:52:57;;;;;;;20.27;7.50;;;19.70;47.90;;;;;;5109697;28;20027;-48
2024/01/08 10:55:24;;;;;;;18.85;7.30;;;19.80;48.30;;;;;;5109841;28;20098;-51
2024/01/08 10:58:01;;;;;;;23.33;8.32;;;19.70;48.50;;;;;;5110126;28;20023;-51
2024/01/08 11:00:28;;;;;;;20.30;8.38;;;19.80;49.10;;;;;;5109917;28;20081;-51
2024/01/08 11:02:54;;;;;;;19.95;7.82;;;19.70;49.80;;;;;;5109780;28;20024;-50
2024/01/08 11:05:21;;;;;;;26.33;9.07;;;19.70;49.90;;;;;;5109248;28;20016;-52
2024/01/08 11:07:51;;;;;;;18.92;7.43;;;19.70;49.80;;;;;;5109026;28;20110;-52
2024/01/08 11:10:18;;;;;;;21.40;7.78;;;19.70;49.40;;;;;;5108506;28;20035;-50
2024/01/08 11:12:52;;;;;;;15.95;6.88;;;19.70;49.20;;;;;;5108874;28;20015;-54
2024/01/08 11:15:18;;;;;;;15.65;7.00;;;19.70;49.00;;;;;;5109154;28;20024;-54
2024/01/08 11:17:52;;;;;;;20.95;7.30;;;19.70;48.90;;;;;;5109187;28;20031;-58
2024/01/08 11:20:44;;;;;;;15.68;6.97;;;19.70;48.60;;;;;;5109285;28;20031;-56
2024/01/08 11:23:32;;;;;;;16.58;6.95;;;19.70;48.70;;;;;;5103178;28;20063;-52
2024/01/08 11:26:00;;;;;;;15.45;6.70;;;19.70;48.60;;;;;;5102974;28;20043;-57
2024/01/08 11:28:26;;;;;;;15.00;6.35;;;19.80;48.70;;;;;;5108106;28;20103;-55
2024/01/08 11:31:20;;;;;;;16.30;6.70;;;19.80;49.40;;;;;;5108442;28;20104;-54
2024/01/08 11:33:46;;;;;;;16.70;7.07;;;19.80;50.40;;;;;;5101015;28;20464;-56
2024/01/08 11:36:17;;;;;;;11.90;5.63;;;19.80;51.00;;;;;;5108558;28;20020;-53
2024/01/08 11:38:56;;;;;;;17.20;6.55;;;19.80;49.80;;;;;;5107211;28;20058;-54
2024/01/08 11:41:23;;;;;;;15.60;6.65;;;19.70;49.80;;;;;;5107826;28;20103;-53
2024/01/08 11:43:49;;;;;;;18.88;6.63;;;19.80;49.40;;;;;;5102545;28;20474;-53
2024/01/08 11:46:15;;;;;;;16.23;6.60;;;19.70;49.50;;;;;;5109376;28;20039;-54
2024/01/08 11:48:41;;;;;;;17.80;7.50;;;19.70;49.20;;;;;;5107894;28;20038;-57
2024/01/08 11:51:07;;;;;;;18.20;6.65;;;19.70;49.10;;;;;;5108351;28;20158;-54
2024/01/08 11:53:33;;;;;;;13.77;6.10;;;19.70;48.60;;;;;;5107948;28;20039;-53
2024/01/08 11:56:00;;;;;;;14.90;6.07;;;19.70;48.30;;;;;;5107457;28;20028;-52
2024/01/08 11:58:26;;;;;;;15.65;5.75;;;19.70;48.20;;;;;;5107294;28;20505;-53
2024/01/08 12:00:52;;;;;;;16.30;6.13;;;19.70;48.20;;;;;;5108263;28;20011;-54
2024/01/08 12:03:23;;;;;;;12.35;6.00;;;19.70;48.40;;;;;;5108606;28;20024;-53
2024/01/08 12:06:09;;;;;;;12.77;5.97;;;19.70;48.30;;;;;;5109206;28;20474;-57
2024/01/08 12:08:35;;;;;;;11.82;6.07;;;19.70;48.50;;;;;;5108204;28;20044;-56
2024/01/08 12:11:04;;;;;;;11.68;5.55;;;19.80;48.50;;;;;;5108969;28;20077;-57
2024/01/08 12:13:29;;;;;;;13.10;5.68;;;19.70;48.60;;;;;;5107923;28;20739;-55
2024/01/08 12:15:56;;;;;;;15.30;6.00;;;19.70;48.80;;;;;;5107213;28;20028;-55
2024/01/08 12:18:23;;;;;;;13.63;6.00;;;19.70;48.60;;;;;;5108019;28;20061;-57
2024/01/08 12:20:50;;;;;;;12.05;5.32;;;19.70;48.70;;;;;;5105707;28;20051;-57
2024/01/08 12:23:16;;;;;;;16.50;4.95;;;19.70;49.60;;;;;;5098967;28;20077;-56
2024/01/08 12:25:42;;;;;;;11.68;5.20;;;19.80;49.00;;;;;;5100385;28;20027;-57
2024/01/08 12:28:07;;;;;;;12.98;5.47;;;19.70;48.90;;;;;;5108532;28;20055;-58
2024/01/08 12:30:33;;;;;;;12.25;5.57;;;19.70;49.00;;;;;;5107734;28;20051;-58
2024/01/08 12:32:59;;;;;;;12.15;5.20;;;19.70;49.60;;;;;;5107255;28;20019;-57
2024/01/08 12:35:25;;;;;;;15.75;5.55;;;19.70;49.10;;;;;;5106065;28;20479;-53
2024/01/08 12:37:50;;;;;;;12.32;5.60;;;19.70;49.30;;;;;;5107411;28;20399;-57
2024/01/08 12:40:16;;;;;;;11.27;5.10;;;19.70;49.30;;;;;;5088819;28;20042;-56